Time;durP1;ratioP1;P1;durP2;ratioP2;P2;SDS_P1;SDS_P2;PMS_P1;PMS_P2;Temp;Humidity;BMP_temperature;BMP_pressure;BME280_temperature;BME280_humidity;BME280_pressure;Samples;Min_cycle;Max_cycle;Signal;HPM_P1;HPM_P2
2024/01/04 00:02:07;;;;;;;3.60;1.90;;;;;;;6.61;83.29;95278.02;107802;1245;97967;-79
2024/01/04 00:04:33;;;;;;;3.90;1.70;;;;;;;6.61;83.20;95276.73;107854;1236;99138;-78
2024/01/04 00:06:59;;;;;;;3.90;1.50;;;;;;;6.61;83.12;95275.94;107793;1245;102092;-82
2024/01/04 00:09:26;;;;;;;2.60;1.20;;;;;;;6.61;83.09;95275.29;107826;1238;97905;-82
2024/01/04 00:11:52;;;;;;;1.80;1.30;;;;;;;6.59;83.13;95268.76;107786;1239;97993;-82
2024/01/04 00:14:18;;;;;;;2.90;1.40;;;;;;;6.60;83.12;95275.96;107850;1239;97995;-82
2024/01/04 00:16:45;;;;;;;2.90;1.40;;;;;;;6.60;83.06;95274.10;107846;1238;103384;-78
2024/01/04 00:19:11;;;;;;;2.30;1.70;;;;;;;6.60;83.26;95262.67;107809;1240;97998;-78
2024/01/04 00:21:37;;;;;;;2.50;1.50;;;;;;;6.56;83.26;95256.63;107788;1235;98001;-79
2024/01/04 00:24:04;;;;;;;2.80;1.50;;;;;;;6.55;83.31;95254.98;107846;1237;97919;-78
2024/01/04 00:26:30;;;;;;;2.70;1.40;;;;;;;6.51;83.28;95255.09;107802;1238;103438;-79
2024/01/04 00:28:57;;;;;;;3.70;1.40;;;;;;;6.47;83.39;95256.73;107809;1241;98107;-80
2024/01/04 00:31:24;;;;;;;4.10;1.40;;;;;;;6.41;83.44;95254.34;107770;1241;98459;-79
2024/01/04 00:33:50;;;;;;;2.40;1.50;;;;;;;6.37;83.28;95253.05;107878;1249;97925;-79
2024/01/04 00:36:16;;;;;;;2.10;1.60;;;;;;;6.35;83.29;95246.63;107802;1239;103240;-78
2024/01/04 00:38:42;;;;;;;3.00;1.70;;;;;;;6.32;83.36;95247.46;107794;1239;99168;-79
2024/01/04 00:41:09;;;;;;;2.70;1.40;;;;;;;6.29;83.33;95247.77;107799;1238;97928;-79
2024/01/04 00:43:37;;;;;;;3.60;1.70;;;;;;;6.28;83.29;95241.02;107856;1241;98527;-79
2024/01/04 00:46:04;;;;;;;4.00;1.60;;;;;;;6.27;83.22;95235.38;107717;1246;103764;-81
2024/01/04 00:48:30;;;;;;;2.10;1.30;;;;;;;6.25;83.22;95236.66;107782;1238;97919;-81
2024/01/04 00:50:56;;;;;;;8.80;1.80;;;;;;;6.22;83.14;95231.67;107750;1241;98017;-81
2024/01/04 00:53:22;;;;;;;3.50;1.30;;;;;;;6.22;83.24;95226.65;107842;1247;99145;-81
2024/01/04 00:55:49;;;;;;;3.60;1.50;;;;;;;6.19;83.13;95223.89;107804;1240;103655;-81
2024/01/04 00:58:15;;;;;;;4.40;2.30;;;;;;;6.19;83.11;95219.16;107823;1238;97927;-79
2024/01/04 01:00:43;;;;;;;4.70;2.70;;;;;;;6.18;83.03;95207.48;107771;1238;98181;-80
2024/01/04 01:03:09;;;;;;;6.90;2.70;;;;;;;6.20;82.90;95204.73;107718;1239;99096;-77
2024/01/04 01:05:36;;;;;;;7.20;3.00;;;;;;;6.19;82.74;95195.02;107786;1235;97947;-76
2024/01/04 01:08:02;;;;;;;9.30;4.00;;;;;;;6.16;82.64;95190.30;107769;1235;101402;-80
2024/01/04 01:10:29;;;;;;;16.10;6.70;;;;;;;6.13;82.67;95201.83;107764;1238;97900;-80
2024/01/04 01:12:56;;;;;;;8.00;4.20;;;;;;;6.09;82.77;95214.38;107821;1238;97986;-80
2024/01/04 01:15:22;;;;;;;6.40;3.30;;;;;;;6.08;82.75;95219.70;107857;1238;99307;-80
2024/01/04 01:17:48;;;;;;;5.90;3.10;;;;;;;6.09;82.73;95221.87;107818;1240;101713;-80
2024/01/04 01:20:15;;;;;;;5.30;2.50;;;;;;;6.10;82.59;95211.89;107772;1241;98005;-80
2024/01/04 01:22:41;;;;;;;3.60;1.80;;;;;;;6.09;82.61;95199.21;107791;1239;97990;-80
2024/01/04 01:25:07;;;;;;;3.00;1.60;;;;;;;6.08;82.69;95198.23;107627;1238;97947;-80
2024/01/04 01:27:34;;;;;;;3.70;1.80;;;;;;;6.05;82.70;95197.58;107856;1239;101265;-80
2024/01/04 01:30:00;;;;;;;4.40;1.80;;;;;;;6.04;82.54;95200.48;107788;1239;98823;-80
2024/01/04 01:32:26;;;;;;;2.50;1.70;;;;;;;6.01;82.67;95199.05;107763;1248;99110;-80
2024/01/04 01:34:54;;;;;;;4.40;1.90;;;;;;;5.99;82.57;95210.05;107889;1238;97924;-80
2024/01/04 01:37:21;;;;;;;2.40;1.90;;;;;;;5.97;82.65;95208.34;107778;1238;100284;-80
2024/01/04 01:39:47;;;;;;;3.90;2.40;;;;;;;5.94;82.64;95206.44;107497;1249;97981;-80
2024/01/04 01:42:15;;;;;;;3.80;2.40;;;;;;;5.89;82.64;95206.41;107724;1238;98808;-80
2024/01/04 01:44:42;;;;;;;3.80;2.30;;;;;;;5.84;82.72;95210.02;107704;1238;99176;-76
2024/01/04 01:47:08;;;;;;;4.90;2.80;;;;;;;5.76;82.85;95208.23;107645;1238;97905;-80
2024/01/04 01:49:35;;;;;;;4.30;2.40;;;;;;;5.71;83.04;95208.39;107855;1238;97971;-80
2024/01/04 01:52:01;;;;;;;3.90;2.10;;;;;;;5.70;83.00;95213.11;107730;1237;97939;-80
2024/01/04 01:54:27;;;;;;;5.30;2.40;;;;;;;5.71;83.11;95220.01;107764;1239;97894;-80
2024/01/04 01:56:54;;;;;;;4.10;2.50;;;;;;;5.71;83.12;95223.31;107778;1239;97921;-80
2024/01/04 01:59:20;;;;;;;6.20;2.80;;;;;;;5.70;83.05;95216.12;107813;1238;98807;-80
2024/01/04 02:01:47;;;;;;;10.00;4.70;;;;;;;5.71;83.13;95211.81;107744;1239;99272;-80
2024/01/04 02:04:13;;;;;;;8.40;3.90;;;;;;;5.75;83.35;95212.45;107790;1239;97900;-78
2024/01/04 02:06:39;;;;;;;7.20;2.90;;;;;;;5.80;83.42;95215.07;107807;1248;99141;-79
2024/01/04 02:09:05;;;;;;;4.50;1.90;;;;;;;5.86;83.45;95215.27;107847;1238;97992;-78
2024/01/04 02:11:32;;;;;;;9.00;2.70;;;;;;;5.92;83.50;95220.64;107760;1238;99142;-79
2024/01/04 02:13:58;;;;;;;6.60;3.70;;;;;;;5.94;83.83;95223.59;107807;1238;97928;-78
2024/01/04 02:16:24;;;;;;;6.70;4.60;;;;;;;5.95;84.20;95221.09;107727;1239;97893;-79
2024/01/04 02:18:51;;;;;;;10.60;4.80;;;;;;;5.97;84.15;95224.20;107835;1243;98534;-79
2024/01/04 02:21:17;;;;;;;5.90;3.30;;;;;;;5.99;84.33;95217.66;107786;1237;97928;-78
2024/01/04 02:23:45;;;;;;;4.80;2.60;;;;;;;6.03;84.61;95220.20;107794;1237;97895;-78
2024/01/04 02:26:12;;;;;;;4.30;1.50;;;;;;;6.02;84.79;95215.03;107790;1239;97930;-78
2024/01/04 02:28:38;;;;;;;4.60;1.60;;;;;;;6.05;84.80;95214.55;107774;1237;97960;-78
2024/01/04 02:31:04;;;;;;;4.30;1.80;;;;;;;6.08;84.79;95221.52;107830;1238;97931;-78
2024/01/04 02:33:30;;;;;;;4.30;1.60;;;;;;;6.09;84.78;95215.23;107765;1238;99166;-79
2024/01/04 02:35:57;;;;;;;3.30;1.90;;;;;;;6.12;84.66;95211.60;107791;1243;99174;-79
2024/01/04 02:38:23;;;;;;;10.40;3.80;;;;;;;6.16;84.71;95210.81;107808;1244;98803;-78
2024/01/04 02:40:49;;;;;;;10.80;4.40;;;;;;;6.19;84.79;95208.08;107799;1243;97938;-78
2024/01/04 02:43:17;;;;;;;10.40;2.90;;;;;;;6.16;84.93;95198.86;107725;1238;98389;-76
2024/01/04 02:45:43;;;;;;;4.50;2.20;;;;;;;6.11;85.18;95198.39;107756;1248;97919;-81
2024/01/04 02:48:09;;;;;;;6.10;2.70;;;;;;;6.08;85.19;95200.05;107721;1240;99042;-81
2024/01/04 02:50:36;;;;;;;7.10;2.70;;;;;;;6.07;85.12;95199.76;107738;1249;98231;-82
2024/01/04 02:53:02;;;;;;;2.60;1.60;;;;;;;6.09;85.01;95197.77;107870;1249;97913;-82
2024/01/04 02:55:28;;;;;;;5.20;1.90;;;;;;;6.11;85.03;95192.46;107762;1237;103294;-81
2024/01/04 02:57:54;;;;;;;4.60;1.80;;;;;;;6.12;84.99;95182.55;107778;1239;98842;-81
2024/01/04 03:00:22;;;;;;;2.50;1.60;;;;;;;6.12;85.01;95177.52;107748;1249;99121;-76
2024/01/04 03:02:48;;;;;;;5.30;1.70;;;;;;;6.13;85.09;95177.63;107839;1244;99237;-76
2024/01/04 03:05:14;;;;;;;2.20;1.20;;;;;;;6.14;85.03;95175.91;107758;1240;103661;-76
2024/01/04 03:07:41;;;;;;;3.20;1.30;;;;;;;6.14;84.80;95171.10;107790;1245;99027;-76
2024/01/04 03:10:07;;;;;;;3.60;1.50;;;;;;;6.13;85.06;95172.80;107767;1249;97980;-76
2024/01/04 03:12:34;;;;;;;2.30;1.40;;;;;;;6.14;84.88;95165.41;107842;1239;98023;-75
2024/01/04 03:15:00;;;;;;;5.80;1.60;;;;;;;6.17;84.82;95165.62;107779;1238;103604;-75
2024/01/04 03:17:26;;;;;;;3.70;1.40;;;;;;;6.18;84.68;95167.24;107815;1249;97937;-80
2024/01/04 03:19:53;;;;;;;4.70;1.40;;;;;;;6.19;84.81;95158.16;107555;1246;98611;-80
2024/01/04 03:22:19;;;;;;;2.40;1.20;;;;;;;6.23;84.70;95163.53;107842;1245;98807;-79
2024/01/04 03:24:45;;;;;;;2.60;1.50;;;;;;;6.24;84.67;95165.91;107760;1249;103756;-79
2024/01/04 03:27:12;;;;;;;3.20;1.50;;;;;;;6.24;84.65;95165.45;107763;1246;99141;-79
2024/01/04 03:29:39;;;;;;;3.10;1.30;;;;;;;6.24;84.68;95168.12;107814;1245;97924;-79
2024/01/04 03:32:05;;;;;;;2.30;1.60;;;;;;;6.26;84.62;95175.51;107865;1243;98878;-81
2024/01/04 03:34:31;;;;;;;2.50;1.00;;;;;;;6.26;84.58;95171.27;107786;1246;103023;-79
2024/01/04 03:36:58;;;;;;;3.30;1.30;;;;;;;6.27;84.55;95171.77;107797;1246;98021;-80
2024/01/04 03:39:24;;;;;;;3.60;1.00;;;;;;;6.29;84.55;95167.81;107712;1240;97950;-81
2024/01/04 03:41:50;;;;;;;3.80;1.00;;;;;;;6.31;84.64;95168.39;107859;1241;97842;-81
2024/01/04 03:44:17;;;;;;;2.40;1.10;;;;;;;6.32;84.68;95159.63;107789;1239;103354;-81
2024/01/04 03:46:43;;;;;;;1.10;1.00;;;;;;;6.32;84.94;95153.90;107803;1239;98858;-81
2024/01/04 03:49:09;;;;;;;1.10;0.80;;;;;;;6.28;84.82;95151.73;107779;1239;99179;-80
2024/01/04 03:51:35;;;;;;;2.80;0.90;;;;;;;6.29;84.85;95152.66;107828;1239;97915;-81
2024/01/04 03:54:02;;;;;;;1.30;0.80;;;;;;;6.27;85.08;95152.43;107801;1234;103666;-81
2024/01/04 03:56:29;;;;;;;2.30;1.00;;;;;;;6.26;85.01;95151.11;107779;1239;97906;-83
2024/01/04 03:58:55;;;;;;;3.10;1.10;;;;;;;6.24;85.14;95150.65;107765;1240;97918;-78
2024/01/04 04:01:22;;;;;;;1.90;1.20;;;;;;;6.22;85.30;95152.64;107717;1239;97922;-79
2024/01/04 04:03:48;;;;;;;3.10;1.20;;;;;;;6.22;85.13;95150.48;107726;1238;103107;-78
2024/01/04 04:06:19;;;;;;;0.90;0.80;;;;;;;6.24;85.16;95150.00;107800;1246;98060;-79
2024/01/04 04:08:45;;;;;;;1.20;0.90;;;;;;;6.22;85.04;95147.02;107761;1241;99680;-79
2024/01/04 04:11:18;;;;;;;0.90;0.80;;;;;;;6.25;84.86;95142.14;107778;1239;97952;-78
2024/01/04 04:13:45;;;;;;;1.60;1.10;;;;;;;6.25;84.93;95146.11;107758;1238;98356;-79
2024/01/04 04:16:11;;;;;;;1.40;0.80;;;;;;;6.25;84.86;95150.09;107745;1239;98215;-79
2024/01/04 04:18:37;;;;;;;1.20;1.00;;;;;;;6.24;84.77;95147.27;107768;1239;98913;-81
2024/01/04 04:21:04;;;;;;;0.90;0.70;;;;;;;6.24;84.77;95153.21;107796;1242;97996;-81
2024/01/04 04:23:31;;;;;;;1.10;1.00;;;;;;;6.24;84.77;95149.84;107792;1241;97830;-80
2024/01/04 04:25:58;;;;;;;2.50;1.10;;;;;;;6.24;84.73;95146.69;107764;1248;103514;-81
2024/01/04 04:28:26;;;;;;;2.80;0.90;;;;;;;6.25;84.62;95151.04;107808;1239;97994;-81
2024/01/04 04:30:53;;;;;;;1.60;1.10;;;;;;;6.25;84.56;95148.90;107757;1248;97921;-80
2024/01/04 04:33:19;;;;;;;1.40;1.00;;;;;;;6.26;84.53;95150.33;107810;1239;99026;-80
2024/01/04 04:35:45;;;;;;;1.10;0.90;;;;;;;6.26;84.47;95146.13;107694;1237;97978;-76
2024/01/04 04:38:11;;;;;;;1.10;1.00;;;;;;;6.27;84.25;95147.92;107846;1235;97975;-77
2024/01/04 04:40:40;;;;;;;1.20;0.80;;;;;;;6.26;84.08;95146.66;107733;1239;99632;-76
2024/01/04 04:43:07;;;;;;;1.40;0.90;;;;;;;6.25;84.09;95146.71;107729;1241;98020;-76
2024/01/04 04:45:33;;;;;;;0.90;0.50;;;;;;;6.25;84.08;95139.25;107735;1238;98626;-76
2024/01/04 04:47:59;;;;;;;1.90;0.70;;;;;;;6.26;83.99;95143.85;107870;1237;97989;-77
2024/01/04 04:50:25;;;;;;;0.50;0.50;;;;;;;6.27;83.90;95145.73;107772;1248;100007;-76
2024/01/04 04:52:52;;;;;;;0.70;0.70;;;;;;;6.26;83.55;95146.41;107760;1238;98755;-76
2024/01/04 04:55:18;;;;;;;1.00;0.90;;;;;;;6.26;83.61;95148.18;107712;1238;97919;-76
2024/01/04 04:57:44;;;;;;;0.50;0.50;;;;;;;6.26;83.69;95143.73;107805;1239;97928;-79
2024/01/04 05:00:11;;;;;;;0.60;0.60;;;;;;;6.26;83.41;95144.68;107693;1239;100069;-80
2024/01/04 05:02:37;;;;;;;2.30;0.70;;;;;;;6.25;83.38;95142.36;107812;1239;99033;-76
2024/01/04 05:05:04;;;;;;;0.90;0.80;;;;;;;6.23;83.53;95141.20;107776;1237;98023;-76
2024/01/04 05:07:31;;;;;;;0.80;0.60;;;;;;;6.22;83.52;95140.64;107796;1241;97917;-76
2024/01/04 05:09:57;;;;;;;1.70;0.60;;;;;;;6.21;83.63;95140.99;107853;1239;97948;-76
2024/01/04 05:12:23;;;;;;;1.10;0.80;;;;;;;6.19;83.56;95141.23;107774;1245;97890;-77
2024/01/04 05:14:49;;;;;;;1.50;1.00;;;;;;;6.18;83.56;95140.71;107676;1249;97943;-76
2024/01/04 05:17:16;;;;;;;1.30;0.70;;;;;;;6.14;83.84;95140.23;107685;1248;97998;-80
2024/01/04 05:19:45;;;;;;;1.50;1.10;;;;;;;6.14;83.77;95143.50;107818;1239;97912;-80
2024/01/04 05:22:11;;;;;;;2.30;1.50;;;;;;;6.14;83.85;95146.34;107769;1248;98001;-80
2024/01/04 05:24:38;;;;;;;2.10;1.50;;;;;;;6.13;83.94;95145.85;107778;1241;97984;-80
2024/01/04 05:27:04;;;;;;;4.60;3.40;;;;;;;6.11;83.96;95145.44;107757;1246;99173;-80
2024/01/04 05:29:30;;;;;;;2.30;2.00;;;;;;;6.14;83.90;95149.39;107858;1238;97943;-80
2024/01/04 05:31:57;;;;;;;2.60;2.00;;;;;;;6.14;83.95;95148.43;107687;1246;98039;-80
2024/01/04 05:34:23;;;;;;;1.90;1.60;;;;;;;6.16;84.05;95149.53;107685;1239;97931;-80
2024/01/04 05:36:49;;;;;;;2.10;1.30;;;;;;;6.16;83.92;95144.85;107772;1238;98049;-80
2024/01/04 05:39:15;;;;;;;1.80;1.40;;;;;;;6.14;83.90;95147.62;107878;1248;97972;-80
2024/01/04 05:41:42;;;;;;;2.80;1.00;;;;;;;6.12;83.77;95153.96;107841;1239;97848;-79
2024/01/04 05:44:08;;;;;;;2.60;1.40;;;;;;;6.11;83.73;95152.93;107818;1239;97900;-80
2024/01/04 05:46:34;;;;;;;2.00;1.30;;;;;;;6.10;83.75;95156.91;107794;1237;99235;-77
2024/01/04 05:49:01;;;;;;;2.90;0.90;;;;;;;6.10;83.42;95162.55;107833;1239;99142;-77
2024/01/04 05:51:27;;;;;;;2.90;1.00;;;;;;;6.11;83.34;95168.46;107754;1237;97998;-77
2024/01/04 05:53:53;;;;;;;1.70;1.00;;;;;;;6.12;83.39;95171.59;107780;1239;97994;-79
2024/01/04 05:56:20;;;;;;;1.50;1.10;;;;;;;6.10;83.21;95166.52;107757;1238;97939;-78
2024/01/04 05:58:46;;;;;;;1.50;0.90;;;;;;;6.11;83.11;95172.89;107847;1249;97971;-79
2024/01/04 06:01:13;;;;;;;2.50;1.00;;;;;;;6.11;83.00;95173.50;107734;1239;98808;-80
2024/01/04 06:03:39;;;;;;;2.00;1.00;;;;;;;6.11;82.65;95180.67;107773;1238;98004;-80
2024/01/04 06:06:06;;;;;;;0.90;0.60;;;;;;;6.11;82.77;95181.74;107782;1244;97893;-79
2024/01/04 06:08:33;;;;;;;2.00;1.00;;;;;;;6.10;82.83;95180.85;107747;1244;99161;-79
2024/01/04 06:10:59;;;;;;;2.10;1.30;;;;;;;6.08;82.77;95181.14;107843;1237;98809;-79
2024/01/04 06:13:26;;;;;;;3.00;1.00;;;;;;;6.08;82.93;95184.23;107649;1238;98427;-80
2024/01/04 06:15:53;;;;;;;10.40;4.30;;;;;;;6.07;82.86;95189.04;107606;1247;98734;-78
2024/01/04 06:18:19;;;;;;;2.00;1.30;;;;;;;6.05;82.92;95191.36;107801;1240;97913;-78
2024/01/04 06:20:45;;;;;;;2.80;1.40;;;;;;;6.06;82.96;95191.48;107778;1243;97969;-78
2024/01/04 06:23:12;;;;;;;1.90;1.10;;;;;;;6.08;83.06;95193.50;107849;1240;98401;-78
2024/01/04 06:25:38;;;;;;;1.90;1.10;;;;;;;6.07;82.99;95196.77;107774;1241;103540;-78
2024/01/04 06:28:05;;;;;;;1.60;1.10;;;;;;;6.06;83.14;95199.30;107725;1240;97831;-79
2024/01/04 06:30:34;;;;;;;2.40;1.00;;;;;;;6.03;83.41;95200.05;107782;1248;99266;-78
2024/01/04 06:33:00;;;;;;;2.90;1.30;;;;;;;6.04;83.62;95202.70;107774;1237;97931;-80
2024/01/04 06:35:26;;;;;;;1.90;1.20;;;;;;;6.02;83.79;95200.89;107785;1244;98065;-80
2024/01/04 06:37:53;;;;;;;1.20;1.10;;;;;;;6.00;83.94;95199.36;107849;1235;98808;-80
2024/01/04 06:40:19;;;;;;;2.60;1.50;;;;;;;5.98;83.96;95199.69;107760;1241;99928;-80
2024/01/04 06:42:53;;;;;;;3.30;2.00;;;;;;;5.98;83.79;95196.85;107734;1239;97952;-80
2024/01/04 06:45:19;;;;;;;2.40;1.40;;;;;;;5.98;83.84;95201.55;107795;1239;98335;-79
2024/01/04 06:47:45;;;;;;;3.00;1.70;;;;;;;5.99;83.82;95204.58;107797;1237;97971;-80
2024/01/04 06:50:12;;;;;;;5.00;2.30;;;;;;;5.98;83.88;95209.65;107808;1238;97934;-79
2024/01/04 06:52:38;;;;;;;2.10;1.50;;;;;;;5.97;83.95;95213.37;107597;1235;97915;-79
2024/01/04 06:55:05;;;;;;;1.50;1.10;;;;;;;5.96;83.82;95215.07;107687;1243;98740;-80
2024/01/04 06:57:31;;;;;;;1.30;1.10;;;;;;;5.97;84.03;95215.08;107776;1239;98830;-80
2024/01/04 06:59:57;;;;;;;2.50;1.40;;;;;;;5.96;83.94;95216.77;107795;1247;99241;-80
2024/01/04 07:02:24;;;;;;;2.00;1.40;;;;;;;5.95;84.27;95219.59;107809;1249;98855;-78
2024/01/04 07:04:50;;;;;;;2.10;1.50;;;;;;;5.93;84.20;95218.58;107758;1241;98322;-78
2024/01/04 07:07:16;;;;;;;4.10;2.00;;;;;;;5.94;84.29;95220.36;107786;1246;97923;-78
2024/01/04 07:09:43;;;;;;;2.30;1.90;;;;;;;5.93;84.24;95220.73;107755;1239;97928;-78
2024/01/04 07:12:09;;;;;;;2.50;1.70;;;;;;;5.95;84.29;95222.89;107575;1237;98010;-80
2024/01/04 07:14:38;;;;;;;4.70;2.10;;;;;;;5.95;84.30;95227.25;107835;1237;99129;-80
2024/01/04 07:17:05;;;;;;;2.80;2.20;;;;;;;5.95;84.44;95228.90;107879;1241;103373;-80
2024/01/04 07:19:31;;;;;;;2.60;1.80;;;;;;;5.93;84.48;95230.41;107798;1248;99151;-80
2024/01/04 07:21:57;;;;;;;2.90;2.10;;;;;;;5.95;84.53;95228.90;107794;1248;98802;-80
2024/01/04 07:24:23;;;;;;;1.80;1.40;;;;;;;5.96;84.80;95227.00;107846;1240;98603;-80
2024/01/04 07:26:50;;;;;;;1.40;1.30;;;;;;;5.95;84.79;95229.23;107787;1248;103421;-80
2024/01/04 07:29:16;;;;;;;2.90;2.20;;;;;;;5.95;84.88;95227.02;107783;1244;97991;-80
2024/01/04 07:31:42;;;;;;;3.80;2.30;;;;;;;5.94;85.01;95230.00;107719;1248;98850;-80
2024/01/04 07:34:08;;;;;;;2.30;1.90;;;;;;;5.95;85.10;95239.83;107834;1240;99141;-80
2024/01/04 07:36:35;;;;;;;2.20;1.80;;;;;;;5.94;85.19;95238.42;107800;1239;102462;-81
2024/01/04 07:39:02;;;;;;;3.40;2.00;;;;;;;5.93;85.43;95237.16;107778;1237;99141;-80
2024/01/04 07:41:28;;;;;;;3.30;2.10;;;;;;;5.94;85.33;95236.21;107765;1241;99161;-81
2024/01/04 07:43:54;;;;;;;3.10;1.70;;;;;;;5.95;85.38;95236.56;107821;1242;97910;-80
2024/01/04 07:46:21;;;;;;;3.80;2.50;;;;;;;5.96;85.30;95235.40;107710;1239;103099;-80
2024/01/04 07:48:47;;;;;;;4.60;2.40;;;;;;;5.97;85.37;95237.59;107800;1239;97982;-80
2024/01/04 07:51:13;;;;;;;1.80;1.30;;;;;;;6.00;85.30;95234.05;107785;1246;97887;-80
2024/01/04 07:53:40;;;;;;;2.40;1.40;;;;;;;6.02;85.43;95237.23;107795;1249;98718;-80
2024/01/04 07:56:07;;;;;;;1.60;1.20;;;;;;;6.04;85.38;95242.23;107779;1249;102394;-80
2024/01/04 07:58:33;;;;;;;2.30;1.20;;;;;;;6.08;85.16;95243.07;107747;1239;97966;-80
2024/01/04 08:00:59;;;;;;;2.00;1.30;;;;;;;6.10;85.16;95238.34;107750;1234;98063;-79
2024/01/04 08:03:25;;;;;;;1.40;1.00;;;;;;;6.13;85.03;95240.34;107829;1235;97993;-80
2024/01/04 08:05:52;;;;;;;1.60;1.20;;;;;;;6.18;85.07;95238.06;107782;1248;103458;-80
2024/01/04 08:08:18;;;;;;;1.80;1.30;;;;;;;6.22;84.92;95237.24;107749;1248;99266;-79
2024/01/04 08:10:45;;;;;;;2.00;1.50;;;;;;;6.22;85.00;95237.29;107794;1239;97913;-77
2024/01/04 08:13:11;;;;;;;2.20;1.50;;;;;;;6.26;84.95;95236.11;107832;1238;97931;-78
2024/01/04 08:15:37;;;;;;;1.60;1.40;;;;;;;6.29;84.99;95236.47;107771;1245;103408;-78
2024/01/04 08:18:04;;;;;;;3.00;1.90;;;;;;;6.29;84.92;95231.44;107860;1247;97945;-81
2024/01/04 08:20:32;;;;;;;3.10;1.60;;;;;;;6.29;84.82;95235.77;107774;1249;98808;-81
2024/01/04 08:22:58;;;;;;;4.60;1.80;;;;;;;6.32;84.63;95234.17;107762;1249;99260;-81
2024/01/04 08:25:25;;;;;;;3.10;1.60;;;;;;;6.36;84.36;95237.05;107820;1248;99160;-81
2024/01/04 08:27:51;;;;;;;2.90;1.80;;;;;;;6.39;84.38;95236.48;107795;1249;98007;-77
2024/01/04 08:30:17;;;;;;;3.80;1.70;;;;;;;6.42;84.30;95238.02;107731;1249;100194;-77
2024/01/04 08:32:44;;;;;;;2.10;1.60;;;;;;;6.43;84.26;95241.74;107742;1239;98908;-80
2024/01/04 08:35:10;;;;;;;1.60;1.20;;;;;;;6.44;84.19;95243.70;107794;1239;97915;-79
2024/01/04 08:37:37;;;;;;;1.90;1.60;;;;;;;6.47;84.02;95246.55;107844;1241;97906;-79
2024/01/04 08:40:04;;;;;;;1.20;1.10;;;;;;;6.49;84.07;95242.58;107762;1239;99844;-79
2024/01/04 08:42:31;;;;;;;11.10;5.90;;;;;;;6.51;84.17;95245.17;107817;1239;97952;-79
2024/01/04 08:44:58;;;;;;;14.70;8.50;;;;;;;6.54;84.22;95247.20;107798;1239;97916;-79
2024/01/04 08:47:24;;;;;;;19.70;11.00;;;;;;;6.56;84.30;95248.58;107554;1249;98448;-80
2024/01/04 08:49:51;;;;;;;12.40;7.30;;;;;;;6.56;84.17;95255.66;107669;1249;97899;-81
2024/01/04 08:52:17;;;;;;;4.50;3.30;;;;;;;6.58;84.08;95264.08;107774;1249;98820;-81
2024/01/04 08:54:43;;;;;;;4.80;2.70;;;;;;;6.61;83.98;95264.52;107801;1239;98359;-81
2024/01/04 08:57:10;;;;;;;5.10;2.90;;;;;;;6.64;84.02;95264.35;107759;1239;97995;-81
2024/01/04 08:59:36;;;;;;;4.60;2.70;;;;;;;6.66;83.81;95265.19;107827;1239;98015;-81
2024/01/04 09:02:03;;;;;;;8.00;5.10;;;;;;;6.71;83.82;95268.67;107812;1239;98319;-80
2024/01/04 09:04:29;;;;;;;7.30;2.20;;;;;;;6.75;84.01;95269.02;107727;1246;99687;-80
2024/01/04 09:06:55;;;;;;;2.10;1.30;;;;;;;6.80;83.78;95270.23;107777;1238;97923;-79
2024/01/04 09:09:22;;;;;;;2.10;1.10;;;;;;;6.84;83.61;95270.21;107684;1239;98852;-80
2024/01/04 09:11:49;;;;;;;2.00;1.60;;;;;;;6.89;83.46;95275.33;107812;1248;99204;-79
2024/01/04 09:14:16;;;;;;;2.40;1.30;;;;;;;6.93;83.58;95273.90;107855;1241;98413;-79
2024/01/04 09:16:43;;;;;;;1.70;1.40;;;;;;;7.00;83.78;95272.16;107777;1246;98709;-79
2024/01/04 09:19:17;;;;;;;1.70;1.50;;;;;;;7.07;83.65;95269.44;107860;1240;97933;-80
2024/01/04 09:21:46;;;;;;;2.30;1.60;;;;;;;7.12;83.44;95266.26;107756;1239;100083;-80
2024/01/04 09:24:12;;;;;;;3.50;1.50;;;;;;;7.17;83.49;95265.54;107756;1239;97845;-80
2024/01/04 09:26:43;;;;;;;1.40;1.10;;;;;;;7.18;82.99;95266.21;107801;1246;99159;-80
2024/01/04 09:29:10;;;;;;;2.00;1.30;;;;;;;7.16;82.28;95262.04;107800;1246;103556;-80
2024/01/04 09:31:37;;;;;;;2.90;1.60;;;;;;;7.17;82.19;95259.38;107820;1241;98002;-80
2024/01/04 09:34:05;;;;;;;2.00;1.30;;;;;;;7.22;82.35;95258.50;107819;1239;97939;-81
2024/01/04 09:36:32;;;;;;;2.70;1.50;;;;;;;7.24;82.11;95254.34;107870;1239;97901;-81
2024/01/04 09:39:07;;;;;;;3.50;1.80;;;;;;;7.26;81.93;95259.42;107705;1245;98839;-82
2024/01/04 09:41:44;;;;;;;2.80;1.80;;;;;;;7.28;82.11;95261.27;107532;1244;102783;-82
2024/01/04 09:44:11;;;;;;;4.60;2.00;;;;;;;7.29;81.90;95263.65;107796;1243;100270;-82
2024/01/04 09:46:41;;;;;;;2.80;1.80;;;;;;;7.30;81.78;95259.81;107813;1239;99821;-82
2024/01/04 09:49:09;;;;;;;8.80;4.50;;;;;;;7.32;81.36;95263.17;107781;1247;98816;-82
2024/01/04 09:51:37;;;;;;;7.80;4.80;;;;;;;7.38;81.43;95264.55;107539;1248;98433;-82
2024/01/04 09:54:07;;;;;;;8.90;4.60;;;;;;;7.47;81.40;95264.88;107738;1239;103829;-82
2024/01/04 09:56:40;;;;;;;3.70;2.40;;;;;;;7.53;80.97;95264.64;107770;1239;100193;-82
2024/01/04 09:59:07;;;;;;;4.40;2.90;;;;;;;7.72;80.63;95257.98;107822;1246;99813;-82
2024/01/04 10:01:36;;;;;;;6.30;3.20;;;;;;;8.03;80.84;95257.02;107817;1247;97916;-83
2024/01/04 10:04:11;;;;;;;4.30;2.60;;;;;;;8.31;80.62;95253.23;107824;1250;98533;-82
2024/01/04 10:06:40;;;;;;;4.00;2.20;;;;;;;8.61;79.57;95252.30;107984;1248;103643;-82
2024/01/04 10:09:14;;;;;;;4.60;2.30;;;;;;;8.88;78.34;95253.16;108061;1247;100183;-82
2024/01/04 10:12:05;;;;;;;3.50;2.10;;;;;;;9.15;77.60;95250.09;107853;1240;99816;-82
2024/01/04 10:14:32;;;;;;;4.70;2.40;;;;;;;9.22;76.25;95247.85;107859;1248;97910;-82
2024/01/04 10:16:59;;;;;;;2.70;1.80;;;;;;;9.13;74.86;95251.91;107932;1241;97899;-81
2024/01/04 10:19:30;;;;;;;4.30;2.20;;;;;;;8.98;73.83;95257.41;107907;1246;97940;-81
2024/01/04 10:22:04;;;;;;;4.00;1.60;;;;;;;8.84;74.32;95259.91;107861;1239;101341;-82
2024/01/04 10:24:37;;;;;;;2.90;1.80;;;;;;;8.70;74.04;95262.22;107711;1240;100077;-82
2024/01/04 10:27:05;;;;;;;5.80;3.10;;;;;;;8.60;74.87;95259.36;107830;1245;97838;-82
2024/01/04 10:29:35;;;;;;;13.40;5.90;;;;;;;8.54;75.08;95263.43;107797;1247;98494;-82
2024/01/04 10:32:08;;;;;;;14.50;6.60;;;;;;;8.50;75.86;95264.50;107800;1241;103282;-78
2024/01/04 10:34:35;;;;;;;13.90;5.50;;;;;;;8.49;76.27;95262.23;107761;1247;101292;-78
2024/01/04 10:37:13;;;;;;;15.70;5.80;;;;;;;8.42;74.74;95264.40;107809;1248;97920;-78
2024/01/04 10:39:41;;;;;;;4.00;2.20;;;;;;;8.33;74.36;95258.14;107806;1247;97924;-78
2024/01/04 10:42:09;;;;;;;3.40;2.00;;;;;;;8.26;74.40;95264.42;107838;1240;97987;-82
2024/01/04 10:44:35;;;;;;;3.50;1.70;;;;;;;8.19;74.58;95258.70;107692;1248;103426;-82
2024/01/04 10:47:04;;;;;;;3.90;2.30;;;;;;;8.15;74.59;95259.02;107742;1241;97913;-82
2024/01/04 10:49:30;;;;;;;3.20;2.60;;;;;;;8.11;74.92;95254.81;107768;1239;98073;-82
2024/01/04 10:51:58;;;;;;;3.20;1.70;;;;;;;8.08;75.27;95262.09;107807;1238;98847;-82
2024/01/04 10:54:33;;;;;;;3.00;1.80;;;;;;;7.99;75.52;95266.20;107798;1239;99138;-83
2024/01/04 10:57:01;;;;;;;9.30;5.40;;;;;;;7.86;75.97;95267.94;107897;1241;102974;-82
2024/01/04 10:59:29;;;;;;;9.20;5.50;;;;;;;7.79;76.65;95267.00;107997;1237;101307;-82
2024/01/04 11:01:57;;;;;;;7.50;4.60;;;;;;;7.76;77.04;95267.48;107774;1242;97924;-81
2024/01/04 11:04:28;;;;;;;6.90;3.90;;;;;;;7.74;77.46;95267.11;107703;1246;97927;-81
2024/01/04 11:06:55;;;;;;;3.50;2.60;;;;;;;7.69;77.26;95264.61;107743;1249;98388;-81
2024/01/04 11:09:23;;;;;;;4.30;2.80;;;;;;;7.64;77.55;95259.28;107675;1241;97899;-81
2024/01/04 11:11:51;;;;;;;4.50;2.50;;;;;;;7.64;77.80;95252.83;107625;1248;97940;-81
2024/01/04 11:14:22;;;;;;;4.50;2.60;;;;;;;7.66;78.44;95259.95;107761;1243;99419;-80
2024/01/04 11:17:11;;;;;;;1.80;1.70;;;;;;;7.61;78.69;95259.73;107697;1248;98714;-81
2024/01/04 11:20:10;;;;;;;2.90;2.00;;;;;;;7.56;78.78;95262.92;107811;1240;99053;-80
2024/01/04 11:23:06;;;;;;;4.90;2.20;;;;;;;7.49;79.35;95270.27;107795;1235;103397;-81
2024/01/04 11:26:03;;;;;;;1.80;1.60;;;;;;;7.44;79.62;95270.85;107716;1241;101481;-80
2024/01/04 11:28:29;;;;;;;2.60;1.90;;;;;;;7.40;79.92;95277.41;107739;1241;99857;-81
2024/01/04 11:30:56;;;;;;;2.30;2.00;;;;;;;7.37;80.07;95279.10;107744;1241;97923;-81
2024/01/04 11:33:27;;;;;;;3.20;1.90;;;;;;;7.36;80.02;95279.25;107788;1250;97882;-81